sensor_id;sensor_type;location;lat;lon;timestamp;P1;durP1;ratioP1;P2;durP2;ratioP2
39970;SDS011;35425;51.142;17.178;2023-04-15T00:01:09;6.30;;;5.70;;
39970;SDS011;35425;51.142;17.178;2023-04-15T00:03:36;5.97;;;5.47;;
39970;SDS011;35425;51.142;17.178;2023-04-15T00:06:03;6.18;;;5.57;;
39970;SDS011;35425;51.142;17.178;2023-04-15T00:08:30;5.65;;;5.15;;
39970;SDS011;35425;51.142;17.178;2023-04-15T00:10:57;6.32;;;4.90;;
39970;SDS011;35425;51.142;17.178;2023-04-15T00:13:28;5.10;;;4.70;;
39970;SDS011;35425;51.142;17.178;2023-04-15T00:15:55;5.32;;;4.85;;
39970;SDS011;35425;51.142;17.178;2023-04-15T00:18:23;5.05;;;4.65;;
39970;SDS011;35425;51.142;17.178;2023-04-15T00:20:50;5.50;;;5.00;;
39970;SDS011;35425;51.142;17.178;2023-04-15T00:23:18;5.05;;;4.57;;
39970;SDS011;35425;51.142;17.178;2023-04-15T00:25:45;5.10;;;4.60;;
39970;SDS011;35425;51.142;17.178;2023-04-15T00:28:12;4.65;;;4.18;;
39970;SDS011;35425;51.142;17.178;2023-04-15T00:30:39;4.55;;;4.15;;
39970;SDS011;35425;51.142;17.178;2023-04-15T00:33:07;4.95;;;4.28;;
39970;SDS011;35425;51.142;17.178;2023-04-15T00:35:34;4.63;;;4.18;;
39970;SDS011;35425;51.142;17.178;2023-04-15T00:38:03;4.10;;;3.78;;
39970;SDS011;35425;51.142;17.178;2023-04-15T00:40:33;4.47;;;4.07;;
39970;SDS011;35425;51.142;17.178;2023-04-15T00:43:00;3.95;;;3.60;;
39970;SDS011;35425;51.142;17.178;2023-04-15T00:45:27;4.22;;;3.83;;
39970;SDS011;35425;51.142;17.178;2023-04-15T00:47:59;4.07;;;3.67;;
39970;SDS011;35425;51.142;17.178;2023-04-15T00:50:26;4.03;;;3.63;;
39970;SDS011;35425;51.142;17.178;2023-04-15T00:52:53;4.43;;;4.03;;
39970;SDS011;35425;51.142;17.178;2023-04-15T00:55:20;3.72;;;3.42;;
39970;SDS011;35425;51.142;17.178;2023-04-15T00:57:47;4.65;;;4.25;;
39970;SDS011;35425;51.142;17.178;2023-04-15T01:00:14;4.25;;;3.85;;
39970;SDS011;35425;51.142;17.178;2023-04-15T01:02:42;4.20;;;3.80;;
39970;SDS011;35425;51.142;17.178;2023-04-15T01:05:10;4.13;;;3.72;;
39970;SDS011;35425;51.142;17.178;2023-04-15T01:07:37;4.03;;;3.67;;
39970;SDS011;35425;51.142;17.178;2023-04-15T01:10:04;4.28;;;3.88;;
39970;SDS011;35425;51.142;17.178;2023-04-15T01:12:31;4.43;;;4.03;;
39970;SDS011;35425;51.142;17.178;2023-04-15T01:14:59;4.25;;;3.92;;
39970;SDS011;35425;51.142;17.178;2023-04-15T01:17:27;4.10;;;3.70;;
39970;SDS011;35425;51.142;17.178;2023-04-15T01:19:55;4.53;;;3.72;;
39970;SDS011;35425;51.142;17.178;2023-04-15T01:22:26;3.80;;;3.50;;
39970;SDS011;35425;51.142;17.178;2023-04-15T01:25:00;3.92;;;3.63;;
39970;SDS011;35425;51.142;17.178;2023-04-15T01:27:27;4.30;;;3.90;;
39970;SDS011;35425;51.142;17.178;2023-04-15T01:29:55;3.55;;;3.25;;
39970;SDS011;35425;51.142;17.178;2023-04-15T01:32:23;4.13;;;3.78;;
39970;SDS011;35425;51.142;17.178;2023-04-15T01:34:50;4.43;;;4.03;;
39970;SDS011;35425;51.142;17.178;2023-04-15T01:37:17;3.75;;;3.45;;
39970;SDS011;35425;51.142;17.178;2023-04-15T01:39:44;3.80;;;3.40;;
39970;SDS011;35425;51.142;17.178;2023-04-15T01:42:14;4.55;;;3.70;;
39970;SDS011;35425;51.142;17.178;2023-04-15T01:44:41;3.80;;;3.50;;
39970;SDS011;35425;51.142;17.178;2023-04-15T01:47:08;3.38;;;3.03;;
39970;SDS011;35425;51.142;17.178;2023-04-15T01:49:34;3.55;;;3.25;;
39970;SDS011;35425;51.142;17.178;2023-04-15T01:52:01;3.58;;;3.28;;
39970;SDS011;35425;51.142;17.178;2023-04-15T01:54:28;3.60;;;3.30;;
39970;SDS011;35425;51.142;17.178;2023-04-15T01:56:54;3.28;;;2.97;;
39970;SDS011;35425;51.142;17.178;2023-04-15T01:59:22;3.95;;;3.50;;
39970;SDS011;35425;51.142;17.178;2023-04-15T02:01:48;3.53;;;3.22;;
39970;SDS011;35425;51.142;17.178;2023-04-15T02:04:15;3.55;;;3.25;;
39970;SDS011;35425;51.142;17.178;2023-04-15T02:06:42;3.70;;;3.38;;
39970;SDS011;35425;51.142;17.178;2023-04-15T02:09:09;3.17;;;2.88;;
39970;SDS011;35425;51.142;17.178;2023-04-15T02:11:36;3.65;;;3.10;;
39970;SDS011;35425;51.142;17.178;2023-04-15T02:14:03;3.10;;;2.80;;
39970;SDS011;35425;51.142;17.178;2023-04-15T02:16:31;3.22;;;2.88;;
39970;SDS011;35425;51.142;17.178;2023-04-15T02:18:59;3.08;;;2.80;;
39970;SDS011;35425;51.142;17.178;2023-04-15T02:21:27;3.95;;;3.30;;
39970;SDS011;35425;51.142;17.178;2023-04-15T02:23:54;3.60;;;3.28;;
39970;SDS011;35425;51.142;17.178;2023-04-15T02:26:21;3.30;;;3.00;;
39970;SDS011;35425;51.142;17.178;2023-04-15T02:28:48;3.83;;;2.85;;
39970;SDS011;35425;51.142;17.178;2023-04-15T02:31:16;2.78;;;2.58;;
39970;SDS011;35425;51.142;17.178;2023-04-15T02:33:43;2.97;;;2.78;;
39970;SDS011;35425;51.142;17.178;2023-04-15T02:36:10;2.90;;;2.70;;
39970;SDS011;35425;51.142;17.178;2023-04-15T02:38:37;2.67;;;2.47;;
39970;SDS011;35425;51.142;17.178;2023-04-15T02:41:07;2.55;;;2.35;;
39970;SDS011;35425;51.142;17.178;2023-04-15T02:43:34;3.28;;;2.85;;
39970;SDS011;35425;51.142;17.178;2023-04-15T02:46:01;2.80;;;2.60;;
39970;SDS011;35425;51.142;17.178;2023-04-15T02:48:28;2.95;;;2.70;;
39970;SDS011;35425;51.142;17.178;2023-04-15T02:51:09;2.50;;;2.30;;
39970;SDS011;35425;51.142;17.178;2023-04-15T02:53:36;2.63;;;2.33;;
39970;SDS011;35425;51.142;17.178;2023-04-15T02:56:04;2.63;;;2.42;;
39970;SDS011;35425;51.142;17.178;2023-04-15T02:58:31;2.67;;;2.47;;
39970;SDS011;35425;51.142;17.178;2023-04-15T03:00:58;2.40;;;2.20;;
39970;SDS011;35425;51.142;17.178;2023-04-15T03:03:25;2.60;;;2.40;;
39970;SDS011;35425;51.142;17.178;2023-04-15T03:05:53;2.70;;;2.50;;
39970;SDS011;35425;51.142;17.178;2023-04-15T03:08:20;2.50;;;2.30;;
39970;SDS011;35425;51.142;17.178;2023-04-15T03:10:47;2.53;;;2.33;;
39970;SDS011;35425;51.142;17.178;2023-04-15T03:13:17;2.70;;;2.50;;
39970;SDS011;35425;51.142;17.178;2023-04-15T03:15:51;2.65;;;2.45;;
39970;SDS011;35425;51.142;17.178;2023-04-15T03:18:18;2.80;;;2.60;;
39970;SDS011;35425;51.142;17.178;2023-04-15T03:20:44;2.53;;;2.13;;
39970;SDS011;35425;51.142;17.178;2023-04-15T03:23:11;3.30;;;2.25;;
39970;SDS011;35425;51.142;17.178;2023-04-15T03:25:38;2.75;;;2.55;;
39970;SDS011;35425;51.142;17.178;2023-04-15T03:28:05;2.85;;;2.55;;
39970;SDS011;35425;51.142;17.178;2023-04-15T03:30:32;2.65;;;2.45;;
39970;SDS011;35425;51.142;17.178;2023-04-15T03:32:59;2.80;;;2.60;;
39970;SDS011;35425;51.142;17.178;2023-04-15T03:35:25;2.53;;;2.33;;
39970;SDS011;35425;51.142;17.178;2023-04-15T03:37:52;2.67;;;2.47;;
39970;SDS011;35425;51.142;17.178;2023-04-15T03:40:19;2.58;;;2.38;;
39970;SDS011;35425;51.142;17.178;2023-04-15T03:42:47;2.67;;;2.47;;
39970;SDS011;35425;51.142;17.178;2023-04-15T03:45:15;2.70;;;2.50;;
39970;SDS011;35425;51.142;17.178;2023-04-15T03:47:41;2.30;;;2.10;;
39970;SDS011;35425;51.142;17.178;2023-04-15T03:50:08;2.30;;;2.10;;
39970;SDS011;35425;51.142;17.178;2023-04-15T03:52:35;2.10;;;1.90;;
39970;SDS011;35425;51.142;17.178;2023-04-15T03:55:02;2.55;;;2.30;;
39970;SDS011;35425;51.142;17.178;2023-04-15T03:57:29;2.10;;;1.90;;
39970;SDS011;35425;51.142;17.178;2023-04-15T03:59:56;2.45;;;2.20;;
39970;SDS011;35425;51.142;17.178;2023-04-15T04:02:23;2.33;;;2.13;;
39970;SDS011;35425;51.142;17.178;2023-04-15T04:04:50;2.30;;;2.10;;
39970;SDS011;35425;51.142;17.178;2023-04-15T04:07:20;2.50;;;2.30;;
39970;SDS011;35425;51.142;17.178;2023-04-15T04:09:49;2.22;;;2.03;;
39970;SDS011;35425;51.142;17.178;2023-04-15T04:12:17;1.83;;;1.73;;
39970;SDS011;35425;51.142;17.178;2023-04-15T04:14:43;2.00;;;1.77;;
39970;SDS011;35425;51.142;17.178;2023-04-15T04:17:11;1.90;;;1.80;;
39970;SDS011;35425;51.142;17.178;2023-04-15T04:19:37;1.80;;;1.70;;
39970;SDS011;35425;51.142;17.178;2023-04-15T04:22:04;1.98;;;1.77;;
39970;SDS011;35425;51.142;17.178;2023-04-15T04:24:32;1.98;;;1.88;;
39970;SDS011;35425;51.142;17.178;2023-04-15T04:26:59;1.77;;;1.67;;
39970;SDS011;35425;51.142;17.178;2023-04-15T04:29:26;2.00;;;1.90;;
39970;SDS011;35425;51.142;17.178;2023-04-15T04:31:53;1.73;;;1.63;;
39970;SDS011;35425;51.142;17.178;2023-04-15T04:34:23;1.75;;;1.65;;
39970;SDS011;35425;51.142;17.178;2023-04-15T04:36:50;1.70;;;1.60;;
39970;SDS011;35425;51.142;17.178;2023-04-15T04:39:17;1.60;;;1.48;;
39970;SDS011;35425;51.142;17.178;2023-04-15T04:41:43;1.88;;;1.30;;
39970;SDS011;35425;51.142;17.178;2023-04-15T04:44:10;1.50;;;1.33;;
39970;SDS011;35425;51.142;17.178;2023-04-15T04:46:39;1.58;;;1.48;;
39970;SDS011;35425;51.142;17.178;2023-04-15T04:49:08;1.40;;;1.30;;
39970;SDS011;35425;51.142;17.178;2023-04-15T04:51:37;1.98;;;1.77;;
39970;SDS011;35425;51.142;17.178;2023-04-15T04:54:04;1.50;;;1.40;;
39970;SDS011;35425;51.142;17.178;2023-04-15T04:56:31;1.52;;;1.42;;
39970;SDS011;35425;51.142;17.178;2023-04-15T04:58:59;1.73;;;1.30;;
39970;SDS011;35425;51.142;17.178;2023-04-15T05:01:27;1.40;;;1.25;;
39970;SDS011;35425;51.142;17.178;2023-04-15T05:03:54;1.23;;;1.13;;
39970;SDS011;35425;51.142;17.178;2023-04-15T05:06:21;1.20;;;1.10;;
39970;SDS011;35425;51.142;17.178;2023-04-15T05:08:48;1.20;;;1.10;;
39970;SDS011;35425;51.142;17.178;2023-04-15T05:11:15;1.10;;;1.00;;
39970;SDS011;35425;51.142;17.178;2023-04-15T05:13:41;1.13;;;1.02;;
39970;SDS011;35425;51.142;17.178;2023-04-15T05:16:08;1.52;;;0.85;;
39970;SDS011;35425;51.142;17.178;2023-04-15T05:18:35;1.10;;;1.00;;
39970;SDS011;35425;51.142;17.178;2023-04-15T05:21:02;0.80;;;0.80;;
39970;SDS011;35425;51.142;17.178;2023-04-15T05:23:29;1.00;;;0.90;;
39970;SDS011;35425;51.142;17.178;2023-04-15T05:25:56;1.20;;;1.10;;
39970;SDS011;35425;51.142;17.178;2023-04-15T05:28:23;1.20;;;1.10;;
39970;SDS011;35425;51.142;17.178;2023-04-15T05:30:49;1.90;;;1.02;;
39970;SDS011;35425;51.142;17.178;2023-04-15T05:33:16;0.98;;;0.98;;
39970;SDS011;35425;51.142;17.178;2023-04-15T05:35:43;0.75;;;0.70;;
39970;SDS011;35425;51.142;17.178;2023-04-15T05:38:10;0.85;;;0.80;;
39970;SDS011;35425;51.142;17.178;2023-04-15T05:40:37;1.40;;;0.93;;
39970;SDS011;35425;51.142;17.178;2023-04-15T05:43:04;0.80;;;0.80;;
39970;SDS011;35425;51.142;17.178;2023-04-15T05:45:34;1.95;;;0.73;;
39970;SDS011;35425;51.142;17.178;2023-04-15T05:48:01;0.68;;;0.68;;
39970;SDS011;35425;51.142;17.178;2023-04-15T05:50:27;0.68;;;0.68;;
39970;SDS011;35425;51.142;17.178;2023-04-15T05:52:54;0.57;;;0.50;;
39970;SDS011;35425;51.142;17.178;2023-04-15T05:55:21;0.70;;;0.70;;
39970;SDS011;35425;51.142;17.178;2023-04-15T05:57:48;0.88;;;0.68;;
39970;SDS011;35425;51.142;17.178;2023-04-15T06:00:15;1.10;;;0.70;;
39970;SDS011;35425;51.142;17.178;2023-04-15T06:02:41;0.68;;;0.47;;
39970;SDS011;35425;51.142;17.178;2023-04-15T06:05:09;0.50;;;0.50;;
39970;SDS011;35425;51.142;17.178;2023-04-15T06:07:37;0.63;;;0.50;;
39970;SDS011;35425;51.142;17.178;2023-04-15T06:10:04;0.65;;;0.45;;
39970;SDS011;35425;51.142;17.178;2023-04-15T06:12:31;0.75;;;0.50;;
39970;SDS011;35425;51.142;17.178;2023-04-15T06:15:01;0.40;;;0.40;;
39970;SDS011;35425;51.142;17.178;2023-04-15T06:17:29;1.00;;;0.40;;
39970;SDS011;35425;51.142;17.178;2023-04-15T06:19:56;0.70;;;0.50;;
39970;SDS011;35425;51.142;17.178;2023-04-15T06:22:23;0.60;;;0.40;;
39970;SDS011;35425;51.142;17.178;2023-04-15T06:24:49;0.50;;;0.50;;
39970;SDS011;35425;51.142;17.178;2023-04-15T06:27:16;1.33;;;0.50;;
39970;SDS011;35425;51.142;17.178;2023-04-15T06:29:43;0.70;;;0.45;;
39970;SDS011;35425;51.142;17.178;2023-04-15T06:32:10;0.85;;;0.30;;
39970;SDS011;35425;51.142;17.178;2023-04-15T06:34:37;1.40;;;0.40;;
39970;SDS011;35425;51.142;17.178;2023-04-15T06:37:04;0.98;;;0.40;;
39970;SDS011;35425;51.142;17.178;2023-04-15T06:39:31;0.50;;;0.28;;
39970;SDS011;35425;51.142;17.178;2023-04-15T06:41:58;0.30;;;0.30;;
39970;SDS011;35425;51.142;17.178;2023-04-15T06:44:26;1.50;;;0.60;;
39970;SDS011;35425;51.142;17.178;2023-04-15T06:46:53;0.70;;;0.57;;
39970;SDS011;35425;51.142;17.178;2023-04-15T06:49:20;0.68;;;0.32;;
39970;SDS011;35425;51.142;17.178;2023-04-15T06:51:47;0.45;;;0.30;;
39970;SDS011;35425;51.142;17.178;2023-04-15T06:54:15;0.50;;;0.20;;
39970;SDS011;35425;51.142;17.178;2023-04-15T06:56:42;0.70;;;0.32;;
39970;SDS011;35425;51.142;17.178;2023-04-15T06:59:09;0.77;;;0.30;;
39970;SDS011;35425;51.142;17.178;2023-04-15T07:01:36;0.60;;;0.35;;
39970;SDS011;35425;51.142;17.178;2023-04-15T07:04:03;0.32;;;0.30;;
39970;SDS011;35425;51.142;17.178;2023-04-15T07:06:30;0.77;;;0.40;;
39970;SDS011;35425;51.142;17.178;2023-04-15T07:08:58;1.15;;;0.30;;
39970;SDS011;35425;51.142;17.178;2023-04-15T07:11:26;1.00;;;0.30;;
39970;SDS011;35425;51.142;17.178;2023-04-15T07:13:53;0.93;;;0.38;;
39970;SDS011;35425;51.142;17.178;2023-04-15T07:16:20;0.32;;;0.30;;
39970;SDS011;35425;51.142;17.178;2023-04-15T07:18:47;0.77;;;0.40;;
39970;SDS011;35425;51.142;17.178;2023-04-15T07:21:14;0.60;;;0.30;;
39970;SDS011;35425;51.142;17.178;2023-04-15T07:23:41;1.92;;;0.40;;
39970;SDS011;35425;51.142;17.178;2023-04-15T07:26:08;1.13;;;0.38;;
39970;SDS011;35425;51.142;17.178;2023-04-15T07:28:35;1.08;;;0.40;;
39970;SDS011;35425;51.142;17.178;2023-04-15T07:31:04;2.15;;;0.40;;
39970;SDS011;35425;51.142;17.178;2023-04-15T07:33:31;0.60;;;0.30;;
39970;SDS011;35425;51.142;17.178;2023-04-15T07:35:58;0.95;;;0.30;;
39970;SDS011;35425;51.142;17.178;2023-04-15T07:38:25;0.60;;;0.40;;
39970;SDS011;35425;51.142;17.178;2023-04-15T07:40:52;1.83;;;0.40;;
39970;SDS011;35425;51.142;17.178;2023-04-15T07:43:18;0.77;;;0.30;;
39970;SDS011;35425;51.142;17.178;2023-04-15T07:45:46;3.35;;;0.55;;
39970;SDS011;35425;51.142;17.178;2023-04-15T07:48:13;0.80;;;0.22;;
39970;SDS011;35425;51.142;17.178;2023-04-15T07:50:41;0.52;;;0.22;;
39970;SDS011;35425;51.142;17.178;2023-04-15T07:53:08;0.50;;;0.30;;
39970;SDS011;35425;51.142;17.178;2023-04-15T07:55:35;0.73;;;0.40;;
39970;SDS011;35425;51.142;17.178;2023-04-15T07:58:02;0.30;;;0.30;;
39970;SDS011;35425;51.142;17.178;2023-04-15T08:00:29;0.52;;;0.30;;
39970;SDS011;35425;51.142;17.178;2023-04-15T08:02:56;0.60;;;0.30;;
39970;SDS011;35425;51.142;17.178;2023-04-15T08:05:25;0.40;;;0.20;;
39970;SDS011;35425;51.142;17.178;2023-04-15T08:07:51;0.45;;;0.20;;
39970;SDS011;35425;51.142;17.178;2023-04-15T08:10:18;0.38;;;0.25;;
39970;SDS011;35425;51.142;17.178;2023-04-15T08:12:48;0.35;;;0.30;;
39970;SDS011;35425;51.142;17.178;2023-04-15T08:15:19;0.28;;;0.25;;
39970;SDS011;35425;51.142;17.178;2023-04-15T08:17:47;0.55;;;0.28;;
39970;SDS011;35425;51.142;17.178;2023-04-15T08:20:14;0.40;;;0.30;;
39970;SDS011;35425;51.142;17.178;2023-04-15T08:22:41;0.30;;;0.25;;
39970;SDS011;35425;51.142;17.178;2023-04-15T08:25:08;0.68;;;0.40;;
39970;SDS011;35425;51.142;17.178;2023-04-15T08:27:36;0.30;;;0.20;;
39970;SDS011;35425;51.142;17.178;2023-04-15T08:30:03;0.40;;;0.30;;
39970;SDS011;35425;51.142;17.178;2023-04-15T08:32:30;0.40;;;0.20;;
39970;SDS011;35425;51.142;17.178;2023-04-15T08:34:57;0.35;;;0.20;;
39970;SDS011;35425;51.142;17.178;2023-04-15T08:37:25;1.35;;;0.30;;
39970;SDS011;35425;51.142;17.178;2023-04-15T08:39:52;1.33;;;0.45;;
39970;SDS011;35425;51.142;17.178;2023-04-15T08:42:22;0.50;;;0.30;;
39970;SDS011;35425;51.142;17.178;2023-04-15T08:44:52;0.70;;;0.30;;
39970;SDS011;35425;51.142;17.178;2023-04-15T08:47:20;0.47;;;0.20;;
39970;SDS011;35425;51.142;17.178;2023-04-15T08:49:48;0.20;;;0.20;;
39970;SDS011;35425;51.142;17.178;2023-04-15T08:52:19;1.17;;;0.30;;
39970;SDS011;35425;51.142;17.178;2023-04-15T08:54:49;0.52;;;0.40;;
39970;SDS011;35425;51.142;17.178;2023-04-15T08:57:16;0.30;;;0.30;;
39970;SDS011;35425;51.142;17.178;2023-04-15T08:59:44;0.50;;;0.30;;
39970;SDS011;35425;51.142;17.178;2023-04-15T09:02:11;0.22;;;0.20;;
39970;SDS011;35425;51.142;17.178;2023-04-15T09:04:38;0.60;;;0.20;;
39970;SDS011;35425;51.142;17.178;2023-04-15T09:07:05;1.17;;;0.30;;
39970;SDS011;35425;51.142;17.178;2023-04-15T09:09:32;0.65;;;0.20;;
39970;SDS011;35425;51.142;17.178;2023-04-15T09:12:02;0.32;;;0.30;;
39970;SDS011;35425;51.142;17.178;2023-04-15T09:14:31;0.38;;;0.28;;
39970;SDS011;35425;51.142;17.178;2023-04-15T09:17:02;0.52;;;0.30;;
39970;SDS011;35425;51.142;17.178;2023-04-15T09:19:30;1.13;;;0.30;;
39970;SDS011;35425;51.142;17.178;2023-04-15T09:21:59;1.23;;;0.30;;
39970;SDS011;35425;51.142;17.178;2023-04-15T09:24:37;1.27;;;0.30;;
39970;SDS011;35425;51.142;17.178;2023-04-15T09:27:05;0.50;;;0.20;;
39970;SDS011;35425;51.142;17.178;2023-04-15T09:29:32;0.28;;;0.15;;
39970;SDS011;35425;51.142;17.178;2023-04-15T09:32:09;1.25;;;0.30;;
39970;SDS011;35425;51.142;17.178;2023-04-15T09:34:36;0.50;;;0.20;;
39970;SDS011;35425;51.142;17.178;2023-04-15T09:37:04;1.00;;;0.38;;
39970;SDS011;35425;51.142;17.178;2023-04-15T09:39:48;0.60;;;0.20;;
39970;SDS011;35425;51.142;17.178;2023-04-15T09:42:16;0.95;;;0.30;;
39970;SDS011;35425;51.142;17.178;2023-04-15T09:44:50;0.30;;;0.15;;
39970;SDS011;35425;51.142;17.178;2023-04-15T09:47:28;0.38;;;0.20;;
39970;SDS011;35425;51.142;17.178;2023-04-15T09:49:56;0.38;;;0.10;;
39970;SDS011;35425;51.142;17.178;2023-04-15T09:52:23;0.70;;;0.20;;
39970;SDS011;35425;51.142;17.178;2023-04-15T09:54:53;0.50;;;0.40;;
39970;SDS011;35425;51.142;17.178;2023-04-15T09:57:23;0.52;;;0.22;;
39970;SDS011;35425;51.142;17.178;2023-04-15T09:59:50;1.30;;;0.30;;
39970;SDS011;35425;51.142;17.178;2023-04-15T10:02:18;0.75;;;0.25;;
39970;SDS011;35425;51.142;17.178;2023-04-15T10:04:48;0.75;;;0.30;;
39970;SDS011;35425;51.142;17.178;2023-04-15T10:07:16;0.70;;;0.30;;
39970;SDS011;35425;51.142;17.178;2023-04-15T10:09:46;1.52;;;0.40;;
39970;SDS011;35425;51.142;17.178;2023-04-15T10:12:14;0.38;;;0.20;;
39970;SDS011;35425;51.142;17.178;2023-04-15T10:14:42;0.40;;;0.20;;
39970;SDS011;35425;51.142;17.178;2023-04-15T10:17:12;0.55;;;0.20;;
39970;SDS011;35425;51.142;17.178;2023-04-15T10:19:40;0.50;;;0.20;;
39970;SDS011;35425;51.142;17.178;2023-04-15T10:22:07;0.38;;;0.20;;
39970;SDS011;35425;51.142;17.178;2023-04-15T10:24:34;0.38;;;0.20;;
39970;SDS011;35425;51.142;17.178;2023-04-15T10:27:02;0.20;;;0.20;;
39970;SDS011;35425;51.142;17.178;2023-04-15T10:29:29;0.65;;;0.30;;
39970;SDS011;35425;51.142;17.178;2023-04-15T10:31:58;0.32;;;0.20;;
39970;SDS011;35425;51.142;17.178;2023-04-15T10:34:25;1.17;;;0.20;;
39970;SDS011;35425;51.142;17.178;2023-04-15T10:36:55;1.00;;;0.20;;
39970;SDS011;35425;51.142;17.178;2023-04-15T10:42:06;0.47;;;0.25;;
39970;SDS011;35425;51.142;17.178;2023-04-15T10:44:34;1.67;;;0.30;;
39970;SDS011;35425;51.142;17.178;2023-04-15T10:47:03;1.13;;;0.30;;
39970;SDS011;35425;51.142;17.178;2023-04-15T10:49:30;1.30;;;0.25;;
39970;SDS011;35425;51.142;17.178;2023-04-15T10:51:57;0.85;;;0.30;;
39970;SDS011;35425;51.142;17.178;2023-04-15T10:59:31;1.20;;;0.20;;
39970;SDS011;35425;51.142;17.178;2023-04-15T11:05:11;0.30;;;0.15;;
39970;SDS011;35425;51.142;17.178;2023-04-15T11:12:39;0.93;;;0.28;;
39970;SDS011;35425;51.142;17.178;2023-04-15T11:15:26;0.68;;;0.30;;
39970;SDS011;35425;51.142;17.178;2023-04-15T11:17:54;0.95;;;0.30;;
39970;SDS011;35425;51.142;17.178;2023-04-15T11:20:21;0.60;;;0.30;;
39970;SDS011;35425;51.142;17.178;2023-04-15T11:22:52;0.57;;;0.20;;
39970;SDS011;35425;51.142;17.178;2023-04-15T11:25:39;0.30;;;0.20;;
39970;SDS011;35425;51.142;17.178;2023-04-15T11:28:07;0.40;;;0.22;;
39970;SDS011;35425;51.142;17.178;2023-04-15T11:30:35;0.65;;;0.28;;
39970;SDS011;35425;51.142;17.178;2023-04-15T11:33:03;0.82;;;0.22;;
39970;SDS011;35425;51.142;17.178;2023-04-15T11:35:34;0.75;;;0.22;;
39970;SDS011;35425;51.142;17.178;2023-04-15T11:38:01;0.55;;;0.20;;
39970;SDS011;35425;51.142;17.178;2023-04-15T11:40:29;0.75;;;0.28;;
39970;SDS011;35425;51.142;17.178;2023-04-15T11:43:06;0.40;;;0.20;;
39970;SDS011;35425;51.142;17.178;2023-04-15T11:45:34;1.40;;;0.30;;
39970;SDS011;35425;51.142;17.178;2023-04-15T11:48:10;0.90;;;0.30;;
39970;SDS011;35425;51.142;17.178;2023-04-15T11:50:37;1.52;;;0.40;;
39970;SDS011;35425;51.142;17.178;2023-04-15T11:53:07;0.47;;;0.30;;
39970;SDS011;35425;51.142;17.178;2023-04-15T11:55:40;1.23;;;0.20;;
39970;SDS011;35425;51.142;17.178;2023-04-15T12:00:41;0.40;;;0.30;;
39970;SDS011;35425;51.142;17.178;2023-04-15T12:16:32;0.47;;;0.25;;
39970;SDS011;35425;51.142;17.178;2023-04-15T12:19:10;1.20;;;0.20;;
39970;SDS011;35425;51.142;17.178;2023-04-15T12:21:38;1.50;;;0.28;;
39970;SDS011;35425;51.142;17.178;2023-04-15T12:24:06;2.05;;;0.20;;
39970;SDS011;35425;51.142;17.178;2023-04-15T12:26:34;0.57;;;0.20;;
39970;SDS011;35425;51.142;17.178;2023-04-15T12:29:01;1.17;;;0.20;;
39970;SDS011;35425;51.142;17.178;2023-04-15T12:31:29;0.50;;;0.40;;
39970;SDS011;35425;51.142;17.178;2023-04-15T12:33:56;0.60;;;0.30;;
39970;SDS011;35425;51.142;17.178;2023-04-15T12:36:23;0.40;;;0.30;;
39970;SDS011;35425;51.142;17.178;2023-04-15T12:38:50;1.75;;;0.20;;
39970;SDS011;35425;51.142;17.178;2023-04-15T12:41:18;0.50;;;0.20;;
39970;SDS011;35425;51.142;17.178;2023-04-15T12:43:45;1.35;;;0.20;;
39970;SDS011;35425;51.142;17.178;2023-04-15T12:46:12;1.00;;;0.30;;
39970;SDS011;35425;51.142;17.178;2023-04-15T12:48:40;1.15;;;0.30;;
39970;SDS011;35425;51.142;17.178;2023-04-15T12:51:07;0.68;;;0.13;;
39970;SDS011;35425;51.142;17.178;2023-04-15T12:53:34;0.85;;;0.13;;
39970;SDS011;35425;51.142;17.178;2023-04-15T12:56:01;1.45;;;0.20;;
39970;SDS011;35425;51.142;17.178;2023-04-15T12:58:28;0.77;;;0.30;;
39970;SDS011;35425;51.142;17.178;2023-04-15T13:00:55;0.95;;;0.32;;
39970;SDS011;35425;51.142;17.178;2023-04-15T13:03:22;0.85;;;0.30;;
39970;SDS011;35425;51.142;17.178;2023-04-15T13:05:49;0.75;;;0.30;;
39970;SDS011;35425;51.142;17.178;2023-04-15T13:08:16;1.00;;;0.40;;
39970;SDS011;35425;51.142;17.178;2023-04-15T13:10:43;0.80;;;0.28;;
39970;SDS011;35425;51.142;17.178;2023-04-15T13:13:10;0.68;;;0.20;;
39970;SDS011;35425;51.142;17.178;2023-04-15T13:15:37;0.65;;;0.20;;
39970;SDS011;35425;51.142;17.178;2023-04-15T13:18:05;1.27;;;0.25;;
39970;SDS011;35425;51.142;17.178;2023-04-15T13:20:32;0.43;;;0.20;;
39970;SDS011;35425;51.142;17.178;2023-04-15T13:22:59;1.35;;;0.30;;
39970;SDS011;35425;51.142;17.178;2023-04-15T13:25:25;0.52;;;0.20;;
39970;SDS011;35425;51.142;17.178;2023-04-15T13:27:53;0.70;;;0.30;;
39970;SDS011;35425;51.142;17.178;2023-04-15T13:30:19;1.42;;;0.35;;
39970;SDS011;35425;51.142;17.178;2023-04-15T13:32:46;0.85;;;0.40;;
39970;SDS011;35425;51.142;17.178;2023-04-15T13:35:16;0.20;;;0.10;;
39970;SDS011;35425;51.142;17.178;2023-04-15T13:37:42;0.15;;;0.15;;
39970;SDS011;35425;51.142;17.178;2023-04-15T13:40:09;0.38;;;0.20;;
39970;SDS011;35425;51.142;17.178;2023-04-15T13:42:37;0.57;;;0.25;;
39970;SDS011;35425;51.142;17.178;2023-04-15T13:45:07;0.60;;;0.30;;
39970;SDS011;35425;51.142;17.178;2023-04-15T13:47:34;0.38;;;0.10;;
39970;SDS011;35425;51.142;17.178;2023-04-15T13:50:04;0.65;;;0.20;;
39970;SDS011;35425;51.142;17.178;2023-04-15T13:52:31;0.40;;;0.10;;
39970;SDS011;35425;51.142;17.178;2023-04-15T13:54:57;0.63;;;0.15;;
39970;SDS011;35425;51.142;17.178;2023-04-15T13:57:44;0.17;;;0.10;;
39970;SDS011;35425;51.142;17.178;2023-04-15T14:00:11;0.25;;;0.25;;
39970;SDS011;35425;51.142;17.178;2023-04-15T14:02:39;0.20;;;0.15;;
39970;SDS011;35425;51.142;17.178;2023-04-15T14:05:06;0.63;;;0.30;;
39970;SDS011;35425;51.142;17.178;2023-04-15T14:07:33;0.52;;;0.10;;
39970;SDS011;35425;51.142;17.178;2023-04-15T14:10:00;0.98;;;0.20;;
39970;SDS011;35425;51.142;17.178;2023-04-15T14:12:26;0.40;;;0.20;;
39970;SDS011;35425;51.142;17.178;2023-04-15T14:14:53;0.20;;;0.20;;
39970;SDS011;35425;51.142;17.178;2023-04-15T14:17:20;0.47;;;0.17;;
39970;SDS011;35425;51.142;17.178;2023-04-15T14:19:47;0.30;;;0.20;;
39970;SDS011;35425;51.142;17.178;2023-04-15T14:22:14;0.30;;;0.20;;
39970;SDS011;35425;51.142;17.178;2023-04-15T14:24:41;1.10;;;0.25;;
39970;SDS011;35425;51.142;17.178;2023-04-15T14:27:07;0.15;;;0.15;;
39970;SDS011;35425;51.142;17.178;2023-04-15T14:29:34;0.40;;;0.13;;
39970;SDS011;35425;51.142;17.178;2023-04-15T14:32:01;0.20;;;0.15;;
39970;SDS011;35425;51.142;17.178;2023-04-15T14:34:37;0.60;;;0.17;;
39970;SDS011;35425;51.142;17.178;2023-04-15T14:37:04;0.20;;;0.10;;
39970;SDS011;35425;51.142;17.178;2023-04-15T14:39:31;0.20;;;0.20;;
39970;SDS011;35425;51.142;17.178;2023-04-15T14:41:58;0.45;;;0.20;;
39970;SDS011;35425;51.142;17.178;2023-04-15T14:44:25;0.50;;;0.10;;
39970;SDS011;35425;51.142;17.178;2023-04-15T14:46:52;0.30;;;0.10;;
39970;SDS011;35425;51.142;17.178;2023-04-15T14:49:19;0.22;;;0.17;;
39970;SDS011;35425;51.142;17.178;2023-04-15T14:51:46;0.17;;;0.10;;
39970;SDS011;35425;51.142;17.178;2023-04-15T14:54:13;0.25;;;0.10;;
39970;SDS011;35425;51.142;17.178;2023-04-15T14:56:40;0.10;;;0.10;;
39970;SDS011;35425;51.142;17.178;2023-04-15T14:59:07;0.25;;;0.17;;
39970;SDS011;35425;51.142;17.178;2023-04-15T15:01:34;0.20;;;0.20;;
39970;SDS011;35425;51.142;17.178;2023-04-15T15:04:01;0.40;;;0.20;;
39970;SDS011;35425;51.142;17.178;2023-04-15T15:06:28;0.20;;;0.10;;
39970;SDS011;35425;51.142;17.178;2023-04-15T15:08:56;0.17;;;0.17;;